Paramount Hamilton — 2CWB2 — position and weather

sailwx.info

Track history (hours):
 
Tides and Currents Weather Stations Pressure Air Temp Water Temp Dewpoint Dewpoint Depression Visibility Wind Speed Wind Dir Waves Ship Positions

Paramount Hamilton

Last reported at 2018-May-21 21:02 UTC. Time now 2018-May-22 10:18 UTC.
Position N 28°45' W 094°24'.

Length 249 m; draft 13.7 m.

Type: Tanker. MMSI: 235076274.

Date/timePositionNaut miles runAvg speedWind from/ knotsBaromVisibWave heightAir tempDewpointWater temp
2018-May-21 21:02N 28°45' W 094°24'1410.6
2018-May-21 19:41N 28°59' W 094°25'1110.1
2018-May-21 18:35N 29°10' W 094°28'210.6
2018-May-21 18:27N 29°11' W 094°30'510.5
2018-May-21 18:00N 29°14' W 094°33'5 9.6
2018-May-21 17:29N 29°18' W 094°37'4 9.4
2018-May-21 17:00N 29°20' W 094°41'4 7.6
2018-May-21 16:30N 29°21' W 094°46'3 6.8
2018-May-21 16:00N 29°23' W 094°48'4 7.0
2018-May-21 15:30N 29°26' W 094°50'4 7.5
2018-May-21 15:00N 29°29' W 094°52'4 8.0
2018-May-21 14:30N 29°33' W 094°54'4 8.3
2018-May-21 14:00N 29°36' W 094°57'4 8.0
2018-May-21 13:29N 29°40' W 094°59'3 7.2
2018-May-21 13:00N 29°43' W 095°01'3 5.4
2018-May-21 12:29N 29°45' W 095°04'2 4.2
2018-May-21 12:00N 29°45' W 095°06'1 2.6
2018-May-21 11:29N 29°44' W 095°07'0 0.0
2018-May-21 10:53N 29°44' W 095°07'0 0.0
2018-May-21 10:05N 29°44' W 095°07'0 0.0
2018-May-21 09:35N 29°44' W 095°07'0 0.0
2018-May-21 09:20N 29°44' W 095°07'0 0.0
2018-May-21 08:59N 29°44' W 095°07'0 0.0
2018-May-21 08:29N 29°44' W 095°07'0 0.0
2018-May-21 07:50N 29°44' W 095°07'0 0.0
2018-May-21 07:29N 29°44' W 095°07'0 0.0
2018-May-21 06:56N 29°44' W 095°07'0 0.0
2018-May-21 06:26N 29°44' W 095°07'0 0.0
2018-May-21 05:59N 29°44' W 095°07'0 0.0
2018-May-21 05:29N 29°44' W 095°07'0 0.0
2018-May-21 04:59N 29°44' W 095°07'0 0.0
2018-May-21 04:26N 29°44' W 095°07'0 0.0
2018-May-21 03:44N 29°44' W 095°07'0 0.0
2018-May-21 03:29N 29°44' W 095°07'0 0.0
2018-May-21 02:59N 29°44' W 095°07'0 0.0
2018-May-21 02:23N 29°44' W 095°07'0 0.0
2018-May-21 01:56N 29°44' W 095°07'0 0.0
2018-May-21 01:26N 29°44' W 095°07'0 0.0
2018-May-21 00:50N 29°44' W 095°07'0 0.0
2018-May-21 00:20N 29°44' W 095°07'0 0.0
2018-May-20 23:56N 29°44' W 095°07'0 0.0
2018-May-20 21:38N 29°44' W 095°07'0 0.0
2018-May-20 21:08N 29°44' W 095°07'0 0.0
2018-May-20 20:53N 29°44' W 095°07'0 0.0
2018-May-20 20:14N 29°44' W 095°07'0 0.0
2018-May-20 19:14N 29°44' W 095°07'0 0.0
2018-May-20 18:56N 29°44' W 095°07'0 0.0
2018-May-20 17:14N 29°44' W 095°07'0 0.0
2018-May-20 16:44N 29°44' W 095°07'0 0.0
2018-May-20 16:26N 29°44' W 095°07'0 0.0
2018-May-20 15:56N 29°44' W 095°07'0 0.0
2018-May-20 14:23N 29°44' W 095°07'0 0.0
2018-May-20 13:56N 29°44' W 095°07'0 0.0
2018-May-20 13:20N 29°44' W 095°07'0 0.0
2018-May-20 12:59N 29°44' W 095°07'0 0.0
2018-May-20 12:29N 29°44' W 095°07'0 0.0
2018-May-20 11:50N 29°44' W 095°07'0 0.0
2018-May-20 11:29N 29°44' W 095°07'0 0.0
2018-May-20 10:56N 29°44' W 095°07'0 0.0
2018-May-20 10:26N 29°44' W 095°07'0 0.0
2018-May-20 09:50N 29°44' W 095°07'0 0.0
2018-May-20 09:20N 29°44' W 095°07'0 0.0
2018-May-20 08:50N 29°44' W 095°07'0 0.0
2018-May-20 08:20N 29°44' W 095°07'0 0.0
2018-May-20 07:50N 29°44' W 095°07'0 0.0
2018-May-20 07:20N 29°44' W 095°07'0 0.0
2018-May-20 06:50N 29°44' W 095°07'0 0.0
2018-May-20 06:26N 29°44' W 095°07'0 0.0
2018-May-20 05:56N 29°44' W 095°07'0 0.0
2018-May-20 05:26N 29°44' W 095°07'0 0.0
2018-May-20 04:56N 29°44' W 095°07'0 0.0
2018-May-20 04:20N 29°44' W 095°07'0 0.0
2018-May-20 03:56N 29°44' W 095°07'0 0.0
2018-May-20 03:26N 29°44' W 095°07'0 0.0
2018-May-20 02:59N 29°44' W 095°07'0 0.0
2018-May-20 02:20N 29°44' W 095°07'0 0.0
2018-May-20 01:56N 29°44' W 095°07'0 0.0
2018-May-20 01:26N 29°44' W 095°07'0 0.0
2018-May-20 00:56N 29°44' W 095°07'0 0.0
2018-May-20 00:26N 29°44' W 095°07'0 0.0
2018-May-19 23:56N 29°44' W 095°07'0 0.0
2018-May-19 23:26N 29°44' W 095°07'0 0.0
2018-May-19 22:53N 29°44' W 095°07'0 0.0
2018-May-19 22:26N 29°44' W 095°07'0 0.0
2018-May-19 21:26N 29°44' W 095°07'0 0.0
2018-May-19 20:50N 29°44' W 095°07'0 0.0
2018-May-19 20:20N 29°44' W 095°07'0 0.0
2018-May-19 19:56N 29°44' W 095°07'0 0.0
2018-May-19 19:26N 29°44' W 095°07'0 0.0
2018-May-19 18:32N 29°44' W 095°07'0 0.0
2018-May-19 18:20N 29°44' W 095°07'0 0.0
2018-May-19 17:56N 29°44' W 095°07'0 0.0
2018-May-19 17:26N 29°44' W 095°07'0 0.0
2018-May-19 16:56N 29°44' W 095°07'0 0.0
2018-May-19 16:26N 29°44' W 095°07'0 0.0
2018-May-19 15:59N 29°44' W 095°07'0 0.0
2018-May-19 15:23N 29°44' W 095°07'0 0.0
2018-May-19 14:56N 29°44' W 095°07'0 0.0
2018-May-19 14:26N 29°44' W 095°07'0 0.0
2018-May-19 13:56N 29°44' W 095°07'0 0.0
2018-May-19 13:26N 29°44' W 095°07'0 0.0
2018-May-19 12:56N 29°44' W 095°07'0 0.0
2018-May-19 12:26N 29°44' W 095°07'0 0.0
2018-May-19 11:56N 29°44' W 095°07'0 0.0
2018-May-19 11:26N 29°44' W 095°07'0 0.0
2018-May-19 10:59N 29°44' W 095°07'0 0.0
2018-May-19 10:29N 29°44' W 095°07'0 0.0
2018-May-19 09:56N 29°44' W 095°07'0 0.0
2018-May-19 09:26N 29°44' W 095°07'0 0.0
2018-May-19 08:56N 29°44' W 095°07'0 0.0
2018-May-19 08:29N 29°44' W 095°07'0 0.0
2018-May-19 07:56N 29°44' W 095°07'0 0.1
2018-May-19 07:29N 29°44' W 095°07'1 2.4
2018-May-19 06:58N 29°45' W 095°06'2 4.3
2018-May-19 06:29N 29°45' W 095°04'3 6.0
2018-May-19 06:01N 29°43' W 095°01'4 7.4
2018-May-19 05:30N 29°40' W 094°58'510.6
2018-May-19 05:01N 29°35' W 094°56'510.9
2018-May-19 04:31N 29°31' W 094°53'510.7
2018-May-19 04:01N 29°26' W 094°50'510.3
2018-May-19 03:31N 29°21' W 094°47'5 9.6
2018-May-19 03:00N 29°21' W 094°42'611.5
2018-May-19 02:30N 29°18' W 094°36'10 7.2
2018-May-19 01:04N 29°12' W 094°26'2 5.9
2018-May-19 00:46N 29°10' W 094°25'1 5.3
2018-May-19 00:30N 29°09' W 094°24'4 7.5
2018-May-18 23:59N 29°05' W 094°25'4 6.4
2018-May-18 23:26N 29°02' W 094°25'511.2
2018-May-18 22:59N 28°57' W 094°25'2411.8
2018-May-18 20:58N 28°52' W 093°58'1812.3
2018-May-18 19:30N 29°06' W 093°44'712.5
2018-May-18 18:58N 29°11' W 093°40'612.2
2018-May-18 18:30N 29°17' W 093°39'612.4
2018-May-18 18:01N 29°23' W 093°39'510.2
2018-May-18 17:30N 29°28' W 093°40'612.2
2018-May-18 17:00N 29°33' W 093°45'612.5
2018-May-18 16:30N 29°38' W 093°49'510.5
2018-May-18 16:00N 29°43' W 093°51'4 8.4
2018-May-18 15:30N 29°46' W 093°54'4 7.7
2018-May-18 15:01N 29°49' W 093°57'3 6.7
2018-May-18 14:30N 29°52' W 093°56'3 6.0
2018-May-18 14:01N 29°54' W 093°54'3 5.6
2018-May-18 13:31N 29°56' W 093°52'3 5.4
2018-May-18 13:00N 29°59' W 093°53'3 6.4
2018-May-18 12:31N 29°60' W 093°56'2 5.0
2018-May-18 12:01N 30°01' W 093°59'1 1.3
2018-May-18 11:30N 30°01' W 093°60'0 0.0
2018-May-18 11:01N 30°01' W 093°60'0 0.0
2018-May-18 10:28N 30°01' W 093°60'0 0.0
2018-May-18 09:58N 30°01' W 093°60'0 0.0
2018-May-18 09:25N 30°01' W 093°60'0 0.0
2018-May-18 08:58N 30°01' W 093°60'0 0.0
2018-May-18 08:28N 30°01' W 093°60'0 0.0
2018-May-18 07:58N 30°01' W 093°60'0 0.0
2018-May-18 07:28N 30°01' W 093°60'0 0.0
2018-May-18 06:58N 30°01' W 093°60'0 0.0
2018-May-18 06:28N 30°01' W 093°60'0 0.0
2018-May-18 05:58N 30°01' W 093°60'0 0.0
2018-May-18 05:28N 30°01' W 093°60'0 0.0
2018-May-18 04:58N 30°01' W 093°60'0 0.0
2018-May-18 04:28N 30°01' W 093°60'0 0.0
2018-May-18 03:59N 30°01' W 093°60'0 0.0
2018-May-18 03:28N 30°01' W 093°60'0 0.0
2018-May-18 02:58N 30°01' W 093°60'0 0.0
2018-May-18 02:28N 30°01' W 093°60'0 0.0
2018-May-18 01:58N 30°01' W 093°60'0 0.0
2018-May-18 01:25N 30°01' W 093°60'0 0.0
2018-May-18 00:58N 30°01' W 093°60'0 0.0
2018-May-18 00:28N 30°01' W 093°60'0 0.0
2018-May-17 23:58N 30°01' W 093°60'0 0.0
2018-May-17 23:28N 30°01' W 093°60'0 0.0
2018-May-17 22:58N 30°01' W 093°60'0 0.0
2018-May-17 22:28N 30°01' W 093°60'0 0.0
2018-May-17 21:58N 30°01' W 093°60'0 0.0
2018-May-17 21:28N 30°01' W 093°60'0 0.0
2018-May-17 20:58N 30°01' W 093°60'0 0.0
2018-May-17 20:29N 30°01' W 093°60'0 0.0
2018-May-17 19:59N 30°01' W 093°60'0 0.0
2018-May-17 19:28N 30°01' W 093°60'0 0.0
2018-May-17 18:59N 30°01' W 093°60'0 0.0
2018-May-17 18:28N 30°01' W 093°60'0 0.0
2018-May-17 17:58N 30°01' W 093°60'0 0.0
2018-May-17 17:28N 30°01' W 093°60'0 0.0
2018-May-17 16:59N 30°01' W 093°60'0 0.0
2018-May-17 16:28N 30°01' W 093°60'0 0.0
2018-May-17 15:58N 30°01' W 093°60'0 0.0
2018-May-17 15:29N 30°01' W 093°60'0 0.0
2018-May-17 14:58N 30°01' W 093°60'0 0.0
2018-May-17 14:28N 30°01' W 093°60'0 0.0
2018-May-17 13:58N 30°01' W 093°60'0 0.0
2018-May-17 13:28N 30°01' W 093°60'0 0.0
2018-May-17 12:58N 30°01' W 093°60'0 0.0
2018-May-17 12:28N 30°01' W 093°60'0 0.0
2018-May-17 11:58N 30°01' W 093°60'0 0.0
2018-May-17 11:22N 30°01' W 093°60'0 0.0
2018-May-17 10:58N 30°01' W 093°60'0 0.0
2018-May-17 10:28N 30°01' W 093°60'0 0.0
2018-May-17 09:58N 30°01' W 093°60'0 0.0
2018-May-17 09:25N 30°01' W 093°60'0 0.0
2018-May-17 08:58N 30°01' W 093°60'0 0.0
2018-May-17 08:28N 30°01' W 093°60'0 0.0
2018-May-17 07:58N 30°01' W 093°60'0 0.0
2018-May-17 07:28N 30°01' W 093°60'0 0.0
2018-May-17 06:58N 30°01' W 093°60'0 0.0
2018-May-17 06:28N 30°01' W 093°60'0 0.0
2018-May-17 05:58N 30°01' W 093°60'0 0.0
2018-May-17 05:28N 30°01' W 093°60'0 0.0
2018-May-17 04:58N 30°01' W 093°60'0 0.0
2018-May-17 04:28N 30°01' W 093°60'0 0.0
2018-May-17 03:58N 30°01' W 093°60'0 0.0
2018-May-17 03:28N 30°01' W 093°60'0 0.0
2018-May-17 02:58N 30°01' W 093°60'0 0.0
2018-May-17 02:28N 30°01' W 093°60'0 0.0
2018-May-17 01:58N 30°01' W 093°60'0 0.0
2018-May-17 01:28N 30°01' W 093°60'0 0.0
2018-May-17 00:58N 30°01' W 093°60'0 0.0
2018-May-17 00:25N 30°01' W 093°60'0 0.0
2018-May-16 23:58N 30°01' W 093°60'0 0.0
2018-May-16 23:28N 30°01' W 093°60'0 0.0
2018-May-16 22:58N 30°01' W 093°60'0 0.0
2018-May-16 22:28N 30°01' W 093°60'0 0.0
2018-May-16 21:58N 30°01' W 093°60'0 0.0
2018-May-16 21:28N 30°01' W 093°60'0 0.0
2018-May-16 20:58N 30°01' W 093°60'0 0.0
2018-May-16 20:28N 30°01' W 093°60'0 0.0
2018-May-16 19:59N 30°01' W 093°60'0 0.0
2018-May-16 19:28N 30°01' W 093°60'0 0.0
2018-May-16 18:58N 30°01' W 093°60'0 0.0
2018-May-16 18:28N 30°01' W 093°60'0 0.0
2018-May-16 17:58N 30°01' W 093°60'0 0.0
2018-May-16 17:28N 30°01' W 093°60'0 0.0
2018-May-16 17:00N 30°01' W 093°60'0 0.7
2018-May-16 16:30N 30°01' W 093°59'2 4.2
2018-May-16 16:00N 29°60' W 093°57'3 5.1
2018-May-16 15:30N 29°59' W 093°54'3 5.7
2018-May-16 15:00N 29°58' W 093°51'3 5.7
2018-May-16 14:30N 29°55' W 093°53'3 6.6
2018-May-16 14:00N 29°53' W 093°55'3 5.3
2018-May-16 13:30N 29°51' W 093°57'4 7.3
2018-May-16 13:00N 29°47' W 093°57'4 8.1
2018-May-16 12:30N 29°45' W 093°53'4 8.2
2018-May-16 12:00N 29°41' W 093°50'510.0
2018-May-16 11:30N 29°37' W 093°49'510.0
2018-May-16 11:00N 29°33' W 093°45'510.2
2018-May-16 10:30N 29°29' W 093°40'4 8.1
2018-May-16 10:00N 29°25' W 093°40'1 1.7
2018-May-16 09:30N 29°25' W 093°41'0 0.7
2018-May-16 08:58N 29°25' W 093°41'0 0.1
2018-May-16 08:28N 29°25' W 093°41'0 0.1
2018-May-16 07:58N 29°25' W 093°41'0 0.0
2018-May-16 07:28N 29°25' W 093°41'0 0.0
2018-May-16 06:58N 29°25' W 093°41'0 0.2
2018-May-16 06:25N 29°25' W 093°41'0 0.2
2018-May-16 05:58N 29°25' W 093°41'0 0.2
2018-May-16 05:28N 29°25' W 093°41'0 0.0
2018-May-16 04:55N 29°25' W 093°41'0 0.1
2018-May-16 04:28N 29°25' W 093°41'0 0.1
2018-May-16 03:58N 29°25' W 093°41'0 0.1
2018-May-16 03:28N 29°25' W 093°41'0 0.0
2018-May-16 02:58N 29°25' W 093°41'0 0.0
2018-May-16 02:28N 29°25' W 093°41'0 0.0
2018-May-16 01:58N 29°25' W 093°41'0 0.0
2018-May-16 01:28N 29°25' W 093°41'0 0.0
2018-May-16 00:58N 29°25' W 093°41'0 0.0
2018-May-16 00:28N 29°25' W 093°41'0 0.0
2018-May-15 23:58N 29°25' W 093°41'0 0.0
2018-May-15 23:28N 29°25' W 093°41'0 0.0
2018-May-15 22:58N 29°25' W 093°41'0 0.0
2018-May-15 22:28N 29°25' W 093°41'0 0.0
2018-May-15 21:58N 29°25' W 093°41'0 0.0
2018-May-15 21:28N 29°25' W 093°41'0 0.0
2018-May-15 20:58N 29°25' W 093°41'0 0.1
2018-May-15 20:28N 29°25' W 093°41'0 0.1
2018-May-15 19:58N 29°25' W 093°41'0 0.0
2018-May-15 19:28N 29°25' W 093°41'0 0.0
2018-May-15 18:58N 29°25' W 093°41'0 0.0
2018-May-15 18:25N 29°25' W 093°41'0 0.0
2018-May-15 17:52N 29°25' W 093°41'0 0.0
2018-May-15 17:28N 29°25' W 093°41'0 0.0
2018-May-15 16:55N 29°25' W 093°41'0 0.0
2018-May-15 16:28N 29°25' W 093°41'0 0.0
2018-May-15 15:58N 29°25' W 093°41'0 0.0
2018-May-15 15:28N 29°25' W 093°41'0 0.0
2018-May-15 14:58N 29°25' W 093°41'0 0.0
2018-May-15 14:28N 29°25' W 093°41'0 0.0
2018-May-15 13:58N 29°25' W 093°41'0 0.0
2018-May-15 13:28N 29°25' W 093°41'0 0.0
2018-May-15 12:55N 29°25' W 093°41'0 0.1
2018-May-15 12:28N 29°25' W 093°41'0 0.0
2018-May-15 11:58N 29°25' W 093°41'0 0.0
2018-May-15 11:28N 29°25' W 093°41'0 0.0
2018-May-15 10:58N 29°25' W 093°41'0 0.0
2018-May-15 10:28N 29°25' W 093°41'0 0.0
2018-May-15 09:58N 29°25' W 093°41'0 0.1
2018-May-15 09:28N 29°25' W 093°41'0 0.0
2018-May-15 08:58N 29°25' W 093°41'0 0.1
2018-May-15 08:28N 29°25' W 093°41'0 0.0
2018-May-15 07:58N 29°25' W 093°41'0 0.1
2018-May-15 07:28N 29°25' W 093°41'0 0.1
2018-May-15 06:58N 29°25' W 093°41'0 0.0
2018-May-15 06:28N 29°25' W 093°41'0 0.0
2018-May-15 05:58N 29°25' W 093°41'0 0.0
2018-May-15 05:28N 29°25' W 093°41'0 0.1
2018-May-15 04:58N 29°25' W 093°41'0 0.0
2018-May-15 04:28N 29°25' W 093°41'0 0.1
2018-May-15 03:55N 29°25' W 093°41'0 0.0
2018-May-15 03:28N 29°25' W 093°41'0 0.0
2018-May-15 02:58N 29°25' W 093°41'0 0.0
2018-May-15 02:28N 29°25' W 093°41'0 0.0
2018-May-15 01:52N 29°25' W 093°41'0 0.0
2018-May-15 01:28N 29°25' W 093°41'0 0.0
2018-May-15 00:58N 29°25' W 093°41'0 0.0
2018-May-15 00:28N 29°25' W 093°41'0 0.0
2018-May-14 23:55N 29°25' W 093°41'0 0.0
2018-May-14 23:28N 29°25' W 093°41'0 0.0
2018-May-14 22:55N 29°25' W 093°41'0 0.0
2018-May-14 22:28N 29°25' W 093°41'0 0.0
2018-May-14 21:58N 29°25' W 093°41'0 0.0
2018-May-14 21:25N 29°25' W 093°41'0 0.0
2018-May-14 20:58N 29°25' W 093°41'0 0.0
2018-May-14 20:28N 29°25' W 093°41'0 0.0
2018-May-14 19:58N 29°25' W 093°41'0 0.0
2018-May-14 19:28N 29°25' W 093°41'0 0.0
2018-May-14 18:58N 29°25' W 093°41'0 0.0
2018-May-14 18:28N 29°25' W 093°41'0 0.0
2018-May-14 17:58N 29°25' W 093°41'0 0.0
2018-May-14 17:28N 29°25' W 093°41'0 0.0
2018-May-14 16:58N 29°25' W 093°41'0 0.0
2018-May-14 16:28N 29°25' W 093°41'0 0.0
2018-May-14 15:58N 29°25' W 093°41'0 0.0
2018-May-14 15:28N 29°25' W 093°41'0 0.0
2018-May-14 14:58N 29°25' W 093°41'0 0.0
2018-May-14 14:22N 29°25' W 093°41'0 0.0
2018-May-14 13:49N 29°25' W 093°41'0 0.0
2018-May-14 13:28N 29°25' W 093°41'0 0.0
2018-May-14 12:55N 29°25' W 093°41'0 0.0
2018-May-14 12:22N 29°25' W 093°41'0 0.0
2018-May-14 11:55N 29°25' W 093°41'0 0.1
2018-May-14 11:28N 29°25' W 093°41'0 0.1
2018-May-14 10:52N 29°25' W 093°41'0 0.0
2018-May-14 10:28N 29°25' W 093°41'0 0.0
2018-May-14 09:19N 29°25' W 093°41'0 0.0
2018-May-14 07:58N 29°25' W 093°41'0 0.0
2018-May-14 07:22N 29°25' W 093°41'0 0.0
2018-May-14 06:58N 29°25' W 093°41'0 0.0
2018-May-14 06:10N 29°25' W 093°41'0 0.0
2018-May-14 05:58N 29°25' W 093°41'0 0.0
2018-May-14 05:28N 29°25' W 093°41'0 0.0
2018-May-14 04:55N 29°25' W 093°41'0 0.0
2018-May-14 04:25N 29°25' W 093°41'0 0.0
2018-May-14 03:58N 29°25' W 093°41'0 0.0
2018-May-14 03:25N 29°25' W 093°41'0 0.0
2018-May-14 02:58N 29°25' W 093°41'0 0.0
2018-May-14 02:28N 29°25' W 093°41'0 0.0
2018-May-14 01:58N 29°25' W 093°41'0 0.0
2018-May-14 01:28N 29°25' W 093°41'0 0.0
2018-May-14 00:49N 29°25' W 093°41'0 0.0
2018-May-14 00:28N 29°25' W 093°41'0 0.0
2018-May-13 23:58N 29°25' W 093°41'0 0.0
2018-May-13 23:28N 29°25' W 093°41'0 0.0
2018-May-13 22:58N 29°25' W 093°41'0 0.0
2018-May-13 22:28N 29°25' W 093°41'0 0.0
2018-May-13 21:58N 29°25' W 093°41'0 0.0
2018-May-13 21:28N 29°25' W 093°41'0 0.0
2018-May-13 20:58N 29°25' W 093°41'0 0.0
2018-May-13 20:28N 29°25' W 093°41'0 0.0
2018-May-13 19:58N 29°25' W 093°41'0 0.0
2018-May-13 19:28N 29°25' W 093°41'0 0.0
2018-May-13 18:58N 29°25' W 093°41'0 0.0
2018-May-13 18:25N 29°25' W 093°41'0 0.0
2018-May-13 17:58N 29°25' W 093°41'0 0.0
2018-May-13 17:28N 29°25' W 093°41'0 0.0
2018-May-13 16:58N 29°25' W 093°41'0 0.0
2018-May-13 16:28N 29°25' W 093°41'0 0.0
2018-May-13 15:58N 29°25' W 093°41'0 0.0
2018-May-13 15:28N 29°25' W 093°41'0 0.0
2018-May-13 14:58N 29°25' W 093°41'0 0.0
2018-May-13 14:22N 29°25' W 093°41'0 0.0
2018-May-13 13:55N 29°25' W 093°41'0 0.0
2018-May-13 13:28N 29°25' W 093°41'0 0.0
2018-May-13 12:58N 29°25' W 093°41'0 0.0
2018-May-13 12:28N 29°25' W 093°41'0 0.0
2018-May-13 11:22N 29°25' W 093°41'0 0.0
2018-May-13 10:55N 29°25' W 093°41'0 0.0
2018-May-13 10:25N 29°25' W 093°41'0 0.0
2018-May-13 09:58N 29°25' W 093°41'0 0.0
2018-May-13 09:28N 29°25' W 093°41'0 0.0
2018-May-13 08:58N 29°25' W 093°41'0 0.0
2018-May-13 08:28N 29°25' W 093°41'0 0.0
2018-May-13 07:58N 29°25' W 093°41'0 0.0
2018-May-13 07:28N 29°25' W 093°41'0 0.0
2018-May-13 06:55N 29°25' W 093°41'0 0.0
2018-May-13 06:28N 29°25' W 093°41'0 0.0
2018-May-13 05:58N 29°25' W 093°41'0 0.0
2018-May-13 05:28N 29°25' W 093°41'0 0.0
2018-May-13 04:55N 29°25' W 093°41'0 0.0
2018-May-13 04:25N 29°25' W 093°41'0 0.0
2018-May-13 03:46N 29°25' W 093°41'0 0.0
2018-May-13 03:25N 29°25' W 093°41'0 0.0
2018-May-13 02:46N 29°25' W 093°41'0 0.0
2018-May-13 02:28N 29°25' W 093°41'0 0.0
2018-May-13 01:58N 29°25' W 093°41'0 0.0
2018-May-13 01:28N 29°25' W 093°41'0 0.0
2018-May-12 23:40N 29°25' W 093°41'0 0.0
2018-May-12 23:28N 29°25' W 093°41'0 0.0
2018-May-12 22:55N 29°25' W 093°41'0 0.0
2018-May-12 22:28N 29°25' W 093°41'0 0.0
2018-May-12 21:49N 29°25' W 093°41'0 0.0
2018-May-12 21:28N 29°25' W 093°41'0 0.0
2018-May-12 20:52N 29°25' W 093°41'0 0.0
2018-May-12 20:28N 29°25' W 093°41'0 0.0
2018-May-12 19:58N 29°25' W 093°41'0 0.0
2018-May-12 19:28N 29°25' W 093°41'0 0.0
2018-May-12 18:58N 29°25' W 093°41'0 0.0
2018-May-12 18:28N 29°25' W 093°41'0 0.0
2018-May-12 17:58N 29°25' W 093°41'0 0.0
2018-May-12 17:25N 29°25' W 093°41'0 0.0
2018-May-12 16:55N 29°25' W 093°41'0 0.0
2018-May-12 15:52N 29°25' W 093°41'0 0.0
2018-May-12 15:28N 29°25' W 093°41'0 0.0
2018-May-12 14:49N 29°25' W 093°41'0 0.0
2018-May-12 14:19N 29°25' W 093°41'0 0.0
2018-May-12 13:58N 29°25' W 093°41'0 0.0
2018-May-12 13:22N 29°25' W 093°41'0 0.0
2018-May-12 12:55N 29°25' W 093°41'0 0.0
2018-May-12 12:28N 29°25' W 093°41'0 0.0
2018-May-12 11:55N 29°25' W 093°41'0 0.0
2018-May-12 11:28N 29°25' W 093°41'0 0.0
2018-May-12 10:58N 29°25' W 093°41'0 0.0
2018-May-12 10:28N 29°25' W 093°41'0 0.0
2018-May-12 09:58N 29°25' W 093°41'0 0.0
2018-May-12 09:28N 29°25' W 093°41'0 0.0
2018-May-12 08:58N 29°25' W 093°41'0 0.0
2018-May-12 08:28N 29°25' W 093°41'0 0.0
2018-May-12 07:52N 29°25' W 093°41'0 0.0
2018-May-12 07:28N 29°25' W 093°41'0 0.0
2018-May-12 06:55N 29°25' W 093°41'0 0.0
2018-May-12 06:19N 29°25' W 093°41'0 0.0
2018-May-12 05:55N 29°25' W 093°41'0 0.0
2018-May-12 05:28N 29°25' W 093°41'0 0.0
2018-May-12 04:58N 29°25' W 093°41'0 0.0
2018-May-12 04:16N 29°25' W 093°41'0 0.0
2018-May-12 03:58N 29°25' W 093°41'0 0.0
2018-May-12 03:19N 29°25' W 093°41'0 0.0
2018-May-12 02:58N 29°25' W 093°41'0 0.0
2018-May-12 02:25N 29°25' W 093°41'0 0.0
2018-May-12 01:58N 29°25' W 093°41'0 0.0
2018-May-12 01:19N 29°25' W 093°41'0 0.0
2018-May-12 00:55N 29°25' W 093°41'0 0.0
2018-May-12 00:25N 29°25' W 093°41'0 0.0
2018-May-11 23:58N 29°25' W 093°41'0 0.0
2018-May-11 23:28N 29°25' W 093°41'0 0.0
2018-May-11 22:58N 29°25' W 093°41'0 0.0
2018-May-11 22:28N 29°25' W 093°41'0 0.0
2018-May-11 21:58N 29°25' W 093°41'0 0.0
2018-May-11 21:28N 29°25' W 093°41'  
Track history (hours):
 
Tides and Currents Weather Stations Pressure Air Temp Water Temp Dewpoint Dewpoint Depression Visibility Wind Speed Wind Dir Waves Ship Positions

Paramount Hamilton

Last reported at 2018-May-21 21:02 UTC. Time now 2018-May-22 10:18 UTC.
Position N 28°45' W 094°24'.

Length 249 m; draft 13.7 m.

Type: Tanker. MMSI: 235076274.

Date/timePositionNaut miles runAvg speedWind from/ knotsBaromVisibWave heightAir tempDewpointWater temp
2018-May-21 21:02N 28°45' W 094°24'1410.6
2018-May-21 19:41N 28°59' W 094°25'1110.1
2018-May-21 18:35N 29°10' W 094°28'210.6
2018-May-21 18:27N 29°11' W 094°30'510.5
2018-May-21 18:00N 29°14' W 094°33'5 9.6
2018-May-21 17:29N 29°18' W 094°37'4 9.4
2018-May-21 17:00N 29°20' W 094°41'4 7.6
2018-May-21 16:30N 29°21' W 094°46'3 6.8
2018-May-21 16:00N 29°23' W 094°48'4 7.0
2018-May-21 15:30N 29°26' W 094°50'4 7.5
2018-May-21 15:00N 29°29' W 094°52'4 8.0
2018-May-21 14:30N 29°33' W 094°54'4 8.3
2018-May-21 14:00N 29°36' W 094°57'4 8.0
2018-May-21 13:29N 29°40' W 094°59'3 7.2
2018-May-21 13:00N 29°43' W 095°01'3 5.4
2018-May-21 12:29N 29°45' W 095°04'2 4.2
2018-May-21 12:00N 29°45' W 095°06'1 2.6
2018-May-21 11:29N 29°44' W 095°07'0 0.0
2018-May-21 10:53N 29°44' W 095°07'0 0.0
2018-May-21 10:05N 29°44' W 095°07'0 0.0
2018-May-21 09:35N 29°44' W 095°07'0 0.0
2018-May-21 09:20N 29°44' W 095°07'0 0.0
2018-May-21 08:59N 29°44' W 095°07'0 0.0
2018-May-21 08:29N 29°44' W 095°07'0 0.0
2018-May-21 07:50N 29°44' W 095°07'0 0.0
2018-May-21 07:29N 29°44' W 095°07'0 0.0
2018-May-21 06:56N 29°44' W 095°07'0 0.0
2018-May-21 06:26N 29°44' W 095°07'0 0.0
2018-May-21 05:59N 29°44' W 095°07'0 0.0
2018-May-21 05:29N 29°44' W 095°07'0 0.0
2018-May-21 04:59N 29°44' W 095°07'0 0.0
2018-May-21 04:26N 29°44' W 095°07'0 0.0
2018-May-21 03:44N 29°44' W 095°07'0 0.0
2018-May-21 03:29N 29°44' W 095°07'0 0.0
2018-May-21 02:59N 29°44' W 095°07'0 0.0
2018-May-21 02:23N 29°44' W 095°07'0 0.0
2018-May-21 01:56N 29°44' W 095°07'0 0.0
2018-May-21 01:26N 29°44' W 095°07'0 0.0
2018-May-21 00:50N 29°44' W 095°07'0 0.0
2018-May-21 00:20N 29°44' W 095°07'0 0.0
2018-May-20 23:56N 29°44' W 095°07'0 0.0
2018-May-20 21:38N 29°44' W 095°07'0 0.0
2018-May-20 21:08N 29°44' W 095°07'0 0.0
2018-May-20 20:53N 29°44' W 095°07'0 0.0
2018-May-20 20:14N 29°44' W 095°07'0 0.0
2018-May-20 19:14N 29°44' W 095°07'0 0.0
2018-May-20 18:56N 29°44' W 095°07'0 0.0
2018-May-20 17:14N 29°44' W 095°07'0 0.0
2018-May-20 16:44N 29°44' W 095°07'0 0.0
2018-May-20 16:26N 29°44' W 095°07'0 0.0
2018-May-20 15:56N 29°44' W 095°07'0 0.0
2018-May-20 14:23N 29°44' W 095°07'0 0.0
2018-May-20 13:56N 29°44' W 095°07'0 0.0
2018-May-20 13:20N 29°44' W 095°07'0 0.0
2018-May-20 12:59N 29°44' W 095°07'0 0.0
2018-May-20 12:29N 29°44' W 095°07'0 0.0
2018-May-20 11:50N 29°44' W 095°07'0 0.0
2018-May-20 11:29N 29°44' W 095°07'0 0.0
2018-May-20 10:56N 29°44' W 095°07'0 0.0
2018-May-20 10:26N 29°44' W 095°07'0 0.0
2018-May-20 09:50N 29°44' W 095°07'0 0.0
2018-May-20 09:20N 29°44' W 095°07'0 0.0
2018-May-20 08:50N 29°44' W 095°07'0 0.0
2018-May-20 08:20N 29°44' W 095°07'0 0.0
2018-May-20 07:50N 29°44' W 095°07'0 0.0
2018-May-20 07:20N 29°44' W 095°07'0 0.0
2018-May-20 06:50N 29°44' W 095°07'0 0.0
2018-May-20 06:26N 29°44' W 095°07'0 0.0
2018-May-20 05:56N 29°44' W 095°07'0 0.0
2018-May-20 05:26N 29°44' W 095°07'0 0.0
2018-May-20 04:56N 29°44' W 095°07'0 0.0
2018-May-20 04:20N 29°44' W 095°07'0 0.0
2018-May-20 03:56N 29°44' W 095°07'0 0.0
2018-May-20 03:26N 29°44' W 095°07'0 0.0
2018-May-20 02:59N 29°44' W 095°07'0 0.0
2018-May-20 02:20N 29°44' W 095°07'0 0.0
2018-May-20 01:56N 29°44' W 095°07'0 0.0
2018-May-20 01:26N 29°44' W 095°07'0 0.0
2018-May-20 00:56N 29°44' W 095°07'0 0.0
2018-May-20 00:26N 29°44' W 095°07'0 0.0
2018-May-19 23:56N 29°44' W 095°07'0 0.0
2018-May-19 23:26N 29°44' W 095°07'0 0.0
2018-May-19 22:53N 29°44' W 095°07'0 0.0
2018-May-19 22:26N 29°44' W 095°07'0 0.0
2018-May-19 21:26N 29°44' W 095°07'0 0.0
2018-May-19 20:50N 29°44' W 095°07'0 0.0
2018-May-19 20:20N 29°44' W 095°07'0 0.0
2018-May-19 19:56N 29°44' W 095°07'0 0.0
2018-May-19 19:26N 29°44' W 095°07'0 0.0
2018-May-19 18:32N 29°44' W 095°07'0 0.0
2018-May-19 18:20N 29°44' W 095°07'0 0.0
2018-May-19 17:56N 29°44' W 095°07'0 0.0
2018-May-19 17:26N 29°44' W 095°07'0 0.0
2018-May-19 16:56N 29°44' W 095°07'0 0.0
2018-May-19 16:26N 29°44' W 095°07'0 0.0
2018-May-19 15:59N 29°44' W 095°07'0 0.0
2018-May-19 15:23N 29°44' W 095°07'0 0.0
2018-May-19 14:56N 29°44' W 095°07'0 0.0
2018-May-19 14:26N 29°44' W 095°07'0 0.0
2018-May-19 13:56N 29°44' W 095°07'0 0.0
2018-May-19 13:26N 29°44' W 095°07'0 0.0
2018-May-19 12:56N 29°44' W 095°07'0 0.0
2018-May-19 12:26N 29°44' W 095°07'0 0.0
2018-May-19 11:56N 29°44' W 095°07'0 0.0
2018-May-19 11:26N 29°44' W 095°07'0 0.0
2018-May-19 10:59N 29°44' W 095°07'0 0.0
2018-May-19 10:29N 29°44' W 095°07'0 0.0
2018-May-19 09:56N 29°44' W 095°07'0 0.0
2018-May-19 09:26N 29°44' W 095°07'0 0.0
2018-May-19 08:56N 29°44' W 095°07'0 0.0
2018-May-19 08:29N 29°44' W 095°07'0 0.0
2018-May-19 07:56N 29°44' W 095°07'0 0.1
2018-May-19 07:29N 29°44' W 095°07'1 2.4
2018-May-19 06:58N 29°45' W 095°06'2 4.3
2018-May-19 06:29N 29°45' W 095°04'3 6.0
2018-May-19 06:01N 29°43' W 095°01'4 7.4
2018-May-19 05:30N 29°40' W 094°58'510.6
2018-May-19 05:01N 29°35' W 094°56'510.9
2018-May-19 04:31N 29°31' W 094°53'510.7
2018-May-19 04:01N 29°26' W 094°50'510.3
2018-May-19 03:31N 29°21' W 094°47'5 9.6
2018-May-19 03:00N 29°21' W 094°42'611.5
2018-May-19 02:30N 29°18' W 094°36'10 7.2
2018-May-19 01:04N 29°12' W 094°26'2 5.9
2018-May-19 00:46N 29°10' W 094°25'1 5.3
2018-May-19 00:30N 29°09' W 094°24'4 7.5
2018-May-18 23:59N 29°05' W 094°25'4 6.4
2018-May-18 23:26N 29°02' W 094°25'511.2
2018-May-18 22:59N 28°57' W 094°25'2411.8
2018-May-18 20:58N 28°52' W 093°58'1812.3
2018-May-18 19:30N 29°06' W 093°44'712.5
2018-May-18 18:58N 29°11' W 093°40'612.2
2018-May-18 18:30N 29°17' W 093°39'612.4
2018-May-18 18:01N 29°23' W 093°39'510.2
2018-May-18 17:30N 29°28' W 093°40'612.2
2018-May-18 17:00N 29°33' W 093°45'612.5
2018-May-18 16:30N 29°38' W 093°49'510.5
2018-May-18 16:00N 29°43' W 093°51'4 8.4
2018-May-18 15:30N 29°46' W 093°54'4 7.7
2018-May-18 15:01N 29°49' W 093°57'3 6.7
2018-May-18 14:30N 29°52' W 093°56'3 6.0
2018-May-18 14:01N 29°54' W 093°54'3 5.6
2018-May-18 13:31N 29°56' W 093°52'3 5.4
2018-May-18 13:00N 29°59' W 093°53'3 6.4
2018-May-18 12:31N 29°60' W 093°56'2 5.0
2018-May-18 12:01N 30°01' W 093°59'1 1.3
2018-May-18 11:30N 30°01' W 093°60'0 0.0
2018-May-18 11:01N 30°01' W 093°60'0 0.0
2018-May-18 10:28N 30°01' W 093°60'0 0.0
2018-May-18 09:58N 30°01' W 093°60'0 0.0
2018-May-18 09:25N 30°01' W 093°60'0 0.0
2018-May-18 08:58N 30°01' W 093°60'0 0.0
2018-May-18 08:28N 30°01' W 093°60'0 0.0
2018-May-18 07:58N 30°01' W 093°60'0 0.0
2018-May-18 07:28N 30°01' W 093°60'0 0.0
2018-May-18 06:58N 30°01' W 093°60'0 0.0
2018-May-18 06:28N 30°01' W 093°60'0 0.0
2018-May-18 05:58N 30°01' W 093°60'0 0.0
2018-May-18 05:28N 30°01' W 093°60'0 0.0
2018-May-18 04:58N 30°01' W 093°60'0 0.0
2018-May-18 04:28N 30°01' W 093°60'0 0.0
2018-May-18 03:59N 30°01' W 093°60'0 0.0
2018-May-18 03:28N 30°01' W 093°60'0 0.0
2018-May-18 02:58N 30°01' W 093°60'0 0.0
2018-May-18 02:28N 30°01' W 093°60'0 0.0
2018-May-18 01:58N 30°01' W 093°60'0 0.0
2018-May-18 01:25N 30°01' W 093°60'0 0.0
2018-May-18 00:58N 30°01' W 093°60'0 0.0
2018-May-18 00:28N 30°01' W 093°60'0 0.0
2018-May-17 23:58N 30°01' W 093°60'0 0.0
2018-May-17 23:28N 30°01' W 093°60'0 0.0
2018-May-17 22:58N 30°01' W 093°60'0 0.0
2018-May-17 22:28N 30°01' W 093°60'0 0.0
2018-May-17 21:58N 30°01' W 093°60'0 0.0
2018-May-17 21:28N 30°01' W 093°60'0 0.0
2018-May-17 20:58N 30°01' W 093°60'0 0.0
2018-May-17 20:29N 30°01' W 093°60'0 0.0
2018-May-17 19:59N 30°01' W 093°60'0 0.0
2018-May-17 19:28N 30°01' W 093°60'0 0.0
2018-May-17 18:59N 30°01' W 093°60'0 0.0
2018-May-17 18:28N 30°01' W 093°60'0 0.0
2018-May-17 17:58N 30°01' W 093°60'0 0.0
2018-May-17 17:28N 30°01' W 093°60'0 0.0
2018-May-17 16:59N 30°01' W 093°60'0 0.0
2018-May-17 16:28N 30°01' W 093°60'0 0.0
2018-May-17 15:58N 30°01' W 093°60'0 0.0
2018-May-17 15:29N 30°01' W 093°60'0 0.0
2018-May-17 14:58N 30°01' W 093°60'0 0.0
2018-May-17 14:28N 30°01' W 093°60'0 0.0
2018-May-17 13:58N 30°01' W 093°60'0 0.0
2018-May-17 13:28N 30°01' W 093°60'0 0.0
2018-May-17 12:58N 30°01' W 093°60'0 0.0
2018-May-17 12:28N 30°01' W 093°60'0 0.0
2018-May-17 11:58N 30°01' W 093°60'0 0.0
2018-May-17 11:22N 30°01' W 093°60'0 0.0
2018-May-17 10:58N 30°01' W 093°60'0 0.0
2018-May-17 10:28N 30°01' W 093°60'0 0.0
2018-May-17 09:58N 30°01' W 093°60'0 0.0
2018-May-17 09:25N 30°01' W 093°60'0 0.0
2018-May-17 08:58N 30°01' W 093°60'0 0.0
2018-May-17 08:28N 30°01' W 093°60'0 0.0
2018-May-17 07:58N 30°01' W 093°60'0 0.0
2018-May-17 07:28N 30°01' W 093°60'0 0.0
2018-May-17 06:58N 30°01' W 093°60'0 0.0
2018-May-17 06:28N 30°01' W 093°60'0 0.0
2018-May-17 05:58N 30°01' W 093°60'0 0.0
2018-May-17 05:28N 30°01' W 093°60'0 0.0
2018-May-17 04:58N 30°01' W 093°60'0 0.0
2018-May-17 04:28N 30°01' W 093°60'0 0.0
2018-May-17 03:58N 30°01' W 093°60'0 0.0
2018-May-17 03:28N 30°01' W 093°60'0 0.0
2018-May-17 02:58N 30°01' W 093°60'0 0.0
2018-May-17 02:28N 30°01' W 093°60'0 0.0
2018-May-17 01:58N 30°01' W 093°60'0 0.0
2018-May-17 01:28N 30°01' W 093°60'0 0.0
2018-May-17 00:58N 30°01' W 093°60'0 0.0
2018-May-17 00:25N 30°01' W 093°60'0 0.0
2018-May-16 23:58N 30°01' W 093°60'0 0.0
2018-May-16 23:28N 30°01' W 093°60'0 0.0
2018-May-16 22:58N 30°01' W 093°60'0 0.0
2018-May-16 22:28N 30°01' W 093°60'0 0.0
2018-May-16 21:58N 30°01' W 093°60'0 0.0
2018-May-16 21:28N 30°01' W 093°60'0 0.0
2018-May-16 20:58N 30°01' W 093°60'0 0.0
2018-May-16 20:28N 30°01' W 093°60'0 0.0
2018-May-16 19:59N 30°01' W 093°60'0 0.0
2018-May-16 19:28N 30°01' W 093°60'0 0.0
2018-May-16 18:58N 30°01' W 093°60'0 0.0
2018-May-16 18:28N 30°01' W 093°60'0 0.0
2018-May-16 17:58N 30°01' W 093°60'0 0.0
2018-May-16 17:28N 30°01' W 093°60'0 0.0
2018-May-16 17:00N 30°01' W 093°60'0 0.7
2018-May-16 16:30N 30°01' W 093°59'2 4.2
2018-May-16 16:00N 29°60' W 093°57'3 5.1
2018-May-16 15:30N 29°59' W 093°54'3 5.7
2018-May-16 15:00N 29°58' W 093°51'3 5.7
2018-May-16 14:30N 29°55' W 093°53'3 6.6
2018-May-16 14:00N 29°53' W 093°55'3 5.3
2018-May-16 13:30N 29°51' W 093°57'4 7.3
2018-May-16 13:00N 29°47' W 093°57'4 8.1
2018-May-16 12:30N 29°45' W 093°53'4 8.2
2018-May-16 12:00N 29°41' W 093°50'510.0
2018-May-16 11:30N 29°37' W 093°49'510.0
2018-May-16 11:00N 29°33' W 093°45'510.2
2018-May-16 10:30N 29°29' W 093°40'4 8.1
2018-May-16 10:00N 29°25' W 093°40'1 1.7
2018-May-16 09:30N 29°25' W 093°41'0 0.7
2018-May-16 08:58N 29°25' W 093°41'0 0.1
2018-May-16 08:28N 29°25' W 093°41'0 0.1
2018-May-16 07:58N 29°25' W 093°41'0 0.0
2018-May-16 07:28N 29°25' W 093°41'0 0.0
2018-May-16 06:58N 29°25' W 093°41'0 0.2
2018-May-16 06:25N 29°25' W 093°41'0 0.2
2018-May-16 05:58N 29°25' W 093°41'0 0.2
2018-May-16 05:28N 29°25' W 093°41'0 0.0
2018-May-16 04:55N 29°25' W 093°41'0 0.1
2018-May-16 04:28N 29°25' W 093°41'0 0.1
2018-May-16 03:58N 29°25' W 093°41'0 0.1
2018-May-16 03:28N 29°25' W 093°41'0 0.0
2018-May-16 02:58N 29°25' W 093°41'0 0.0
2018-May-16 02:28N 29°25' W 093°41'0 0.0
2018-May-16 01:58N 29°25' W 093°41'0 0.0
2018-May-16 01:28N 29°25' W 093°41'0 0.0
2018-May-16 00:58N 29°25' W 093°41'0 0.0
2018-May-16 00:28N 29°25' W 093°41'0 0.0
2018-May-15 23:58N 29°25' W 093°41'0 0.0
2018-May-15 23:28N 29°25' W 093°41'0 0.0
2018-May-15 22:58N 29°25' W 093°41'0 0.0
2018-May-15 22:28N 29°25' W 093°41'0 0.0
2018-May-15 21:58N 29°25' W 093°41'0 0.0
2018-May-15 21:28N 29°25' W 093°41'0 0.0
2018-May-15 20:58N 29°25' W 093°41'0 0.1
2018-May-15 20:28N 29°25' W 093°41'0 0.1
2018-May-15 19:58N 29°25' W 093°41'0 0.0
2018-May-15 19:28N 29°25' W 093°41'0 0.0
2018-May-15 18:58N 29°25' W 093°41'0 0.0
2018-May-15 18:25N 29°25' W 093°41'0 0.0
2018-May-15 17:52N 29°25' W 093°41'0 0.0
2018-May-15 17:28N 29°25' W 093°41'0 0.0
2018-May-15 16:55N 29°25' W 093°41'0 0.0
2018-May-15 16:28N 29°25' W 093°41'0 0.0
2018-May-15 15:58N 29°25' W 093°41'0 0.0
2018-May-15 15:28N 29°25' W 093°41'0 0.0
2018-May-15 14:58N 29°25' W 093°41'0 0.0
2018-May-15 14:28N 29°25' W 093°41'0 0.0
2018-May-15 13:58N 29°25' W 093°41'0 0.0
2018-May-15 13:28N 29°25' W 093°41'0 0.0
2018-May-15 12:55N 29°25' W 093°41'0 0.1
2018-May-15 12:28N 29°25' W 093°41'0 0.0
2018-May-15 11:58N 29°25' W 093°41'0 0.0
2018-May-15 11:28N 29°25' W 093°41'0 0.0
2018-May-15 10:58N 29°25' W 093°41'0 0.0
2018-May-15 10:28N 29°25' W 093°41'0 0.0
2018-May-15 09:58N 29°25' W 093°41'0 0.1
2018-May-15 09:28N 29°25' W 093°41'0 0.0
2018-May-15 08:58N 29°25' W 093°41'0 0.1
2018-May-15 08:28N 29°25' W 093°41'0 0.0
2018-May-15 07:58N 29°25' W 093°41'0 0.1
2018-May-15 07:28N 29°25' W 093°41'0 0.1
2018-May-15 06:58N 29°25' W 093°41'0 0.0
2018-May-15 06:28N 29°25' W 093°41'0 0.0
2018-May-15 05:58N 29°25' W 093°41'0 0.0
2018-May-15 05:28N 29°25' W 093°41'0 0.1
2018-May-15 04:58N 29°25' W 093°41'0 0.0
2018-May-15 04:28N 29°25' W 093°41'0 0.1
2018-May-15 03:55N 29°25' W 093°41'0 0.0
2018-May-15 03:28N 29°25' W 093°41'0 0.0
2018-May-15 02:58N 29°25' W 093°41'0 0.0
2018-May-15 02:28N 29°25' W 093°41'0 0.0
2018-May-15 01:52N 29°25' W 093°41'0 0.0
2018-May-15 01:28N 29°25' W 093°41'0 0.0
2018-May-15 00:58N 29°25' W 093°41'0 0.0
2018-May-15 00:28N 29°25' W 093°41'0 0.0
2018-May-14 23:55N 29°25' W 093°41'0 0.0
2018-May-14 23:28N 29°25' W 093°41'0 0.0
2018-May-14 22:55N 29°25' W 093°41'0 0.0
2018-May-14 22:28N 29°25' W 093°41'0 0.0
2018-May-14 21:58N 29°25' W 093°41'0 0.0
2018-May-14 21:25N 29°25' W 093°41'0 0.0
2018-May-14 20:58N 29°25' W 093°41'0 0.0
2018-May-14 20:28N 29°25' W 093°41'0 0.0
2018-May-14 19:58N 29°25' W 093°41'0 0.0
2018-May-14 19:28N 29°25' W 093°41'0 0.0
2018-May-14 18:58N 29°25' W 093°41'0 0.0
2018-May-14 18:28N 29°25' W 093°41'0 0.0
2018-May-14 17:58N 29°25' W 093°41'0 0.0
2018-May-14 17:28N 29°25' W 093°41'0 0.0
2018-May-14 16:58N 29°25' W 093°41'0 0.0
2018-May-14 16:28N 29°25' W 093°41'0 0.0
2018-May-14 15:58N 29°25' W 093°41'0 0.0
2018-May-14 15:28N 29°25' W 093°41'0 0.0
2018-May-14 14:58N 29°25' W 093°41'0 0.0
2018-May-14 14:22N 29°25' W 093°41'0 0.0
2018-May-14 13:49N 29°25' W 093°41'0 0.0
2018-May-14 13:28N 29°25' W 093°41'0 0.0
2018-May-14 12:55N 29°25' W 093°41'0 0.0
2018-May-14 12:22N 29°25' W 093°41'0 0.0
2018-May-14 11:55N 29°25' W 093°41'0 0.1
2018-May-14 11:28N 29°25' W 093°41'0 0.1
2018-May-14 10:52N 29°25' W 093°41'0 0.0
2018-May-14 10:28N 29°25' W 093°41'0 0.0
2018-May-14 09:19N 29°25' W 093°41'0 0.0
2018-May-14 07:58N 29°25' W 093°41'0 0.0
2018-May-14 07:22N 29°25' W 093°41'0 0.0
2018-May-14 06:58N 29°25' W 093°41'0 0.0
2018-May-14 06:10N 29°25' W 093°41'0 0.0
2018-May-14 05:58N 29°25' W 093°41'0 0.0
2018-May-14 05:28N 29°25' W 093°41'0 0.0
2018-May-14 04:55N 29°25' W 093°41'0 0.0
2018-May-14 04:25N 29°25' W 093°41'0 0.0
2018-May-14 03:58N 29°25' W 093°41'0 0.0
2018-May-14 03:25N 29°25' W 093°41'0 0.0
2018-May-14 02:58N 29°25' W 093°41'0 0.0
2018-May-14 02:28N 29°25' W 093°41'0 0.0
2018-May-14 01:58N 29°25' W 093°41'0 0.0
2018-May-14 01:28N 29°25' W 093°41'0 0.0
2018-May-14 00:49N 29°25' W 093°41'0 0.0
2018-May-14 00:28N 29°25' W 093°41'0 0.0
2018-May-13 23:58N 29°25' W 093°41'0 0.0
2018-May-13 23:28N 29°25' W 093°41'0 0.0
2018-May-13 22:58N 29°25' W 093°41'0 0.0
2018-May-13 22:28N 29°25' W 093°41'0 0.0
2018-May-13 21:58N 29°25' W 093°41'0 0.0
2018-May-13 21:28N 29°25' W 093°41'0 0.0
2018-May-13 20:58N 29°25' W 093°41'0 0.0
2018-May-13 20:28N 29°25' W 093°41'0 0.0
2018-May-13 19:58N 29°25' W 093°41'0 0.0
2018-May-13 19:28N 29°25' W 093°41'0 0.0
2018-May-13 18:58N 29°25' W 093°41'0 0.0
2018-May-13 18:25N 29°25' W 093°41'0 0.0
2018-May-13 17:58N 29°25' W 093°41'0 0.0
2018-May-13 17:28N 29°25' W 093°41'0 0.0
2018-May-13 16:58N 29°25' W 093°41'0 0.0
2018-May-13 16:28N 29°25' W 093°41'0 0.0
2018-May-13 15:58N 29°25' W 093°41'0 0.0
2018-May-13 15:28N 29°25' W 093°41'0 0.0
2018-May-13 14:58N 29°25' W 093°41'0 0.0
2018-May-13 14:22N 29°25' W 093°41'0 0.0
2018-May-13 13:55N 29°25' W 093°41'0 0.0
2018-May-13 13:28N 29°25' W 093°41'0 0.0
2018-May-13 12:58N 29°25' W 093°41'0 0.0
2018-May-13 12:28N 29°25' W 093°41'0 0.0
2018-May-13 11:22N 29°25' W 093°41'0 0.0
2018-May-13 10:55N 29°25' W 093°41'0 0.0
2018-May-13 10:25N 29°25' W 093°41'0 0.0
2018-May-13 09:58N 29°25' W 093°41'0 0.0
2018-May-13 09:28N 29°25' W 093°41'0 0.0
2018-May-13 08:58N 29°25' W 093°41'0 0.0
2018-May-13 08:28N 29°25' W 093°41'0 0.0
2018-May-13 07:58N 29°25' W 093°41'0 0.0
2018-May-13 07:28N 29°25' W 093°41'0 0.0
2018-May-13 06:55N 29°25' W 093°41'0 0.0
2018-May-13 06:28N 29°25' W 093°41'0 0.0
2018-May-13 05:58N 29°25' W 093°41'0 0.0
2018-May-13 05:28N 29°25' W 093°41'0 0.0
2018-May-13 04:55N 29°25' W 093°41'0 0.0
2018-May-13 04:25N 29°25' W 093°41'0 0.0
2018-May-13 03:46N 29°25' W 093°41'0 0.0
2018-May-13 03:25N 29°25' W 093°41'0 0.0
2018-May-13 02:46N 29°25' W 093°41'0 0.0
2018-May-13 02:28N 29°25' W 093°41'0 0.0
2018-May-13 01:58N 29°25' W 093°41'0 0.0
2018-May-13 01:28N 29°25' W 093°41'0 0.0
2018-May-12 23:40N 29°25' W 093°41'0 0.0
2018-May-12 23:28N 29°25' W 093°41'0 0.0
2018-May-12 22:55N 29°25' W 093°41'0 0.0
2018-May-12 22:28N 29°25' W 093°41'0 0.0
2018-May-12 21:49N 29°25' W 093°41'0 0.0
2018-May-12 21:28N 29°25' W 093°41'0 0.0
2018-May-12 20:52N 29°25' W 093°41'0 0.0
2018-May-12 20:28N 29°25' W 093°41'0 0.0
2018-May-12 19:58N 29°25' W 093°41'0 0.0
2018-May-12 19:28N 29°25' W 093°41'0 0.0
2018-May-12 18:58N 29°25' W 093°41'0 0.0
2018-May-12 18:28N 29°25' W 093°41'0 0.0
2018-May-12 17:58N 29°25' W 093°41'0 0.0
2018-May-12 17:25N 29°25' W 093°41'0 0.0
2018-May-12 16:55N 29°25' W 093°41'0 0.0
2018-May-12 15:52N 29°25' W 093°41'0 0.0
2018-May-12 15:28N 29°25' W 093°41'0 0.0
2018-May-12 14:49N 29°25' W 093°41'0 0.0
2018-May-12 14:19N 29°25' W 093°41'0 0.0
2018-May-12 13:58N 29°25' W 093°41'0 0.0
2018-May-12 13:22N 29°25' W 093°41'0 0.0
2018-May-12 12:55N 29°25' W 093°41'0 0.0
2018-May-12 12:28N 29°25' W 093°41'0 0.0
2018-May-12 11:55N 29°25' W 093°41'0 0.0
2018-May-12 11:28N 29°25' W 093°41'0 0.0
2018-May-12 10:58N 29°25' W 093°41'0 0.0
2018-May-12 10:28N 29°25' W 093°41'0 0.0
2018-May-12 09:58N 29°25' W 093°41'0 0.0
2018-May-12 09:28N 29°25' W 093°41'0 0.0
2018-May-12 08:58N 29°25' W 093°41'0 0.0
2018-May-12 08:28N 29°25' W 093°41'0 0.0
2018-May-12 07:52N 29°25' W 093°41'0 0.0
2018-May-12 07:28N 29°25' W 093°41'0 0.0
2018-May-12 06:55N 29°25' W 093°41'0 0.0
2018-May-12 06:19N 29°25' W 093°41'0 0.0
2018-May-12 05:55N 29°25' W 093°41'0 0.0
2018-May-12 05:28N 29°25' W 093°41'0 0.0
2018-May-12 04:58N 29°25' W 093°41'0 0.0
2018-May-12 04:16N 29°25' W 093°41'0 0.0
2018-May-12 03:58N 29°25' W 093°41'0 0.0
2018-May-12 03:19N 29°25' W 093°41'0 0.0
2018-May-12 02:58N 29°25' W 093°41'0 0.0
2018-May-12 02:25N 29°25' W 093°41'0 0.0
2018-May-12 01:58N 29°25' W 093°41'0 0.0
2018-May-12 01:19N 29°25' W 093°41'0 0.0
2018-May-12 00:55N 29°25' W 093°41'0 0.0
2018-May-12 00:25N 29°25' W 093°41'0 0.0
2018-May-11 23:58N 29°25' W 093°41'0 0.0
2018-May-11 23:28N 29°25' W 093°41'0 0.0
2018-May-11 22:58N 29°25' W 093°41'0 0.0
2018-May-11 22:28N 29°25' W 093°41'0 0.0
2018-May-11 21:58N 29°25' W 093°41'0 0.0
2018-May-11 21:28N 29°25' W 093°41'  

Dump ship's entire track history